createdAt,value
2022-07-25T00:18:16.372Z,20.3
2022-07-25T00:38:17.094Z,20.2
2022-07-25T00:48:17.329Z,19.9
2022-07-25T00:58:17.893Z,19.7
2022-07-25T01:08:17.971Z,19.7
2022-07-25T01:18:18.754Z,19.8
2022-07-25T01:28:19.662Z,19.7
2022-07-25T01:48:20.784Z,19.1
2022-07-25T01:58:21.538Z,19
2022-07-25T02:18:23.105Z,18.5
2022-07-25T02:28:23.598Z,18.3
2022-07-25T02:38:23.823Z,18
2022-07-25T02:58:24.912Z,17.8
2022-07-25T03:18:25.851Z,17.8
2022-07-25T03:28:25.952Z,17.8
2022-07-25T03:48:26.431Z,17.7
2022-07-25T03:58:26.950Z,17.7
2022-07-25T04:08:27.309Z,17.7
2022-07-25T04:18:28.528Z,17.7
2022-07-25T04:28:28.137Z,18.1
2022-07-25T04:38:29.170Z,18.4
2022-07-25T04:48:29.980Z,18.7
2022-07-25T04:58:30.924Z,19
2022-07-25T05:08:31.531Z,19.2
2022-07-25T05:18:32.407Z,19.5
2022-07-25T05:28:33.070Z,19.8
2022-07-25T05:58:34.904Z,21.3
2022-07-25T06:18:36.344Z,22.7
2022-07-25T07:08:40.108Z,24.9
2022-07-25T07:28:41.123Z,25.4
2022-07-25T07:38:42.156Z,25.4
2022-07-25T08:08:43.770Z,26.5
2022-07-25T08:18:44.318Z,26.6
2022-07-25T08:28:44.718Z,26.8
2022-07-25T08:38:45.240Z,26.8
2022-07-25T08:48:45.986Z,27.2
2022-07-25T08:58:46.207Z,27.1
2022-07-25T09:18:46.867Z,27.4
2022-07-25T09:28:47.202Z,28.1
2022-07-25T09:38:47.463Z,28.4
2022-07-25T10:08:49.861Z,28.3
2022-07-25T10:18:50.876Z,27.9
2022-07-25T10:28:50.985Z,27.6
2022-07-25T10:38:51.415Z,27.8
2022-07-25T10:48:52.193Z,27.3
2022-07-25T10:58:52.486Z,27.5
2022-07-25T11:08:53.514Z,28
2022-07-25T11:28:54.094Z,28
2022-07-25T11:38:54.357Z,28.7
2022-07-25T11:48:54.856Z,28.5
2022-07-25T11:58:55.742Z,28.3
2022-07-25T12:08:56.523Z,28.1
2022-07-25T12:18:57.121Z,28.5
2022-07-25T12:28:58.102Z,27.5
2022-07-25T12:38:58.746Z,27.9
2022-07-25T12:48:59.171Z,28
2022-07-25T12:58:59.393Z,27.4
2022-07-25T13:08:59.998Z,26.7
2022-07-25T13:19:00.063Z,27.2
2022-07-25T13:29:00.675Z,26.7
2022-07-25T13:39:01.600Z,27.1
2022-07-25T13:49:02.650Z,27.1
2022-07-25T13:59:03.433Z,26.8
2022-07-25T14:09:04.249Z,27
2022-07-25T14:19:05.242Z,26.7
2022-07-25T14:29:05.408Z,26.4
2022-07-25T14:39:06.462Z,26.1
2022-07-25T14:49:06.800Z,26
2022-07-25T14:59:06.958Z,25.7
2022-07-25T15:09:08.067Z,25.3
2022-07-25T15:19:15.543Z,24.9
2022-07-25T15:29:08.802Z,24.7
2022-07-25T15:39:09.728Z,24.3
2022-07-25T15:49:09.947Z,24.1
2022-07-25T15:59:10.450Z,24.4
2022-07-25T16:09:11.230Z,24.5
2022-07-25T16:19:12.223Z,24.4
2022-07-25T16:29:12.927Z,24.5
2022-07-25T16:39:13.351Z,25
2022-07-25T16:49:13.905Z,24.3
2022-07-25T16:59:14.705Z,24.1
2022-07-25T17:09:15.057Z,24
2022-07-25T17:39:17.157Z,24.2
2022-07-25T17:59:18.568Z,23.9
2022-07-25T18:09:19.307Z,23.7
2022-07-25T18:59:21.947Z,22.9
2022-07-25T19:09:22.343Z,22.6
2022-07-25T19:19:22.614Z,22.3
2022-07-25T19:29:23.249Z,22.1
2022-07-25T19:39:24.195Z,21.9
2022-07-25T19:49:25.074Z,21.8
2022-07-25T19:59:25.180Z,21.6
2022-07-25T20:09:25.747Z,21.6
2022-07-25T20:19:26.475Z,21.6
2022-07-25T20:29:26.933Z,21.5
2022-07-25T20:39:27.046Z,21.3
2022-07-25T20:49:28.033Z,21.2
2022-07-25T21:19:30.268Z,20.8
2022-07-25T21:39:31.358Z,20.5
2022-07-25T21:49:41.761Z,20.3
2022-07-25T21:59:33.027Z,20.3
2022-07-25T22:19:34.387Z,20.2
2022-07-25T22:29:35.374Z,20.1
2022-07-25T22:39:36.408Z,20
2022-07-25T22:59:37.672Z,19.8
2022-07-25T23:09:37.973Z,19.7
2022-07-25T23:19:38.969Z,19.5
2022-07-25T23:49:41.703Z,19.2
2022-07-25T23:59:42.675Z,19.1
